CDT,Max TemperatureF,Mean TemperatureF,Min TemperatureF,Max Dew PointF,MeanDew PointF,Min DewpointF,Max Humidity, Mean Humidity, Min Humidity, Max Sea Level PressureIn, Mean Sea Level PressureIn, Min Sea Level PressureIn, Max VisibilityMiles, Mean VisibilityMiles, Min VisibilityMiles, Max Wind SpeedMPH, Mean Wind SpeedMPH, Max Gust SpeedMPH,PrecipitationIn, CloudCover, Events, WindDirDegrees
2012-9-1,91,82,73,72,68,64,83,67,49,30.05,29.96,29.86,10,10,7,21,9,37,0.28,5,,182
2012-9-2,82,78,73,70,67,64,83,72,61,29.93,29.88,29.83,10,10,9,16,8,23,0.09,6,Thunderstorm,247
2012-9-3,87,79,71,70,67,64,78,67,51,29.90,29.87,29.84,10,10,9,13,6,16,0.00,5,,295
2012-9-4,93,81,69,72,68,63,83,67,46,29.93,29.88,29.84,10,8,0,9,1,,0.00,1,,7
2012-9-5,98,84,71,73,68,64,83,67,41,29.90,29.85,29.74,10,9,6,24,4,31,0.28,2,Thunderstorm,156
2012-9-6,93,80,68,73,66,59,83,67,49,29.98,29.93,29.88,10,10,3,25,4,41,0.01,0,Thunderstorm,111
2012-9-7,95,80,66,73,66,61,83,66,49,29.95,29.87,29.71,10,10,8,18,5,24,0.39,1,Thunderstorm,180
2012-9-8,75,66,57,64,55,50,83,63,44,30.03,29.95,29.81,10,10,4,17,9,26,0.23,3,,344
2012-9-9,82,68,53,55,51,46,82,57,32,30.12,30.05,30.00,10,10,3,14,3,22,0.00,0,,326
2012-9-10,80,66,53,54,51,46,77,59,37,30.20,30.14,30.10,10,10,4,9,3,,0.00,0,,74
2012-9-11,84,70,55,57,54,48,82,59,37,30.21,30.16,30.12,10,10,10,8,2,,0.00,0,,133
2012-9-12,84,72,60,61,56,52,77,57,33,30.25,30.19,30.14,10,10,10,13,5,18,0.00,3,,143
2012-9-13,82,74,66,61,59,55,73,63,48,30.26,30.21,30.16,10,10,8,10,5,17,0.06,3,,114
2012-9-14,80,73,66,64,61,57,78,68,54,30.26,30.22,30.19,10,10,4,13,4,,0.04,4,,7
2012-9-15,75,70,64,63,59,55,83,73,61,30.24,30.19,30.11,10,8,5,9,6,,0.02,3,,52
2012-9-16,82,74,66,64,62,61,83,71,51,30.12,30.05,29.98,10,8,3,8,4,,0.50,7,Thunderstorm,87
2012-9-17,71,68,66,64,63,61,83,77,73,30.00,29.89,29.79,10,7,2,8,3,,0.18,6,,95
2012-9-18,71,62,53,63,49,43,83,58,35,30.10,29.93,29.77,10,9,5,20,9,25,0.00,2,,346
2012-9-19,75,60,44,46,41,37,82,52,27,30.20,30.13,30.08,10,10,10,6,2,,0.00,0,,152
2012-9-20,82,65,48,54,48,39,76,55,34,30.10,30.04,29.98,10,10,8,14,3,18,0.00,0,,202
2012-9-21,80,68,55,61,54,48,82,63,42,30.12,29.96,29.87,10,10,8,14,4,20,0.19,2,,193
2012-9-22,82,70,59,54,47,34,77,48,23,30.19,30.05,29.92,10,10,10,13,7,16,0.00,0,,313
2012-9-23,71,58,46,37,36,34,62,44,28,30.30,30.25,30.19,10,10,10,13,6,,0.00,0,,26
2012-9-24,75,60,44,46,40,36,71,48,29,30.29,30.19,30.05,10,10,7,10,5,,0.00,0,,125
2012-9-25,87,74,60,64,56,46,69,57,40,30.08,30.02,29.95,10,10,8,13,6,22,0.00,0,,175
2012-9-26,87,76,64,66,61,57,83,61,45,30.14,30.06,30.02,10,10,6,15,8,25,0.11,2,Thunderstorm,188
2012-9-27,84,74,64,64,61,57,83,71,51,30.18,30.11,30.04,10,9,5,10,3,23,0.37,4,Thunderstorm,152
2012-9-28,73,70,66,64,62,59,83,76,69,30.13,30.08,30.04,10,8,4,8,3,,0.05,5,,14
2012-9-29,77,68,60,59,51,48,73,57,41,30.09,30.03,29.97,10,10,5,12,6,16,0.00,1,,25
2012-9-30,69,63,57,55,52,48,77,67,56,29.97,29.89,29.79,10,9,3,6,4,,0.00,2,,62